createdAt,value
2023-04-18T00:00:48.563Z,13.63
2023-04-18T00:03:16.897Z,13.63
2023-04-18T00:05:44.871Z,13.62
2023-04-18T00:08:11.361Z,13.51
2023-04-18T00:10:38.856Z,13.55
2023-04-18T00:13:07.701Z,13.53
2023-04-18T00:15:43.840Z,13.53
2023-04-18T00:18:12.856Z,13.59
2023-04-18T00:20:39.274Z,13.58
2023-04-18T00:23:08.187Z,13.56
2023-04-18T00:25:36.760Z,13.53
2023-04-18T00:28:03.464Z,13.50
2023-04-18T00:30:29.980Z,13.51
2023-04-18T00:32:56.524Z,13.45
2023-04-18T00:35:23.056Z,13.42
2023-04-18T00:37:49.520Z,13.37
2023-04-18T00:40:15.985Z,13.37
2023-04-18T00:42:42.381Z,13.35
2023-04-18T00:45:08.855Z,13.33
2023-04-18T00:47:36.492Z,13.29
2023-04-18T00:50:02.933Z,13.18
2023-04-18T00:52:30.020Z,13.20
2023-04-18T00:54:56.852Z,13.18
2023-04-18T00:57:23.269Z,13.19
2023-04-18T00:59:50.576Z,13.17
2023-04-18T01:02:17.191Z,13.19
2023-04-18T01:04:43.837Z,13.13
2023-04-18T01:07:10.371Z,13.07
2023-04-18T01:09:36.856Z,13.08
2023-04-18T01:12:03.314Z,13.03
2023-04-18T01:14:29.803Z,13.02
2023-04-18T01:16:56.605Z,13.01
2023-04-18T01:19:23.328Z,12.95
2023-04-18T01:21:49.785Z,12.96
2023-04-18T01:24:19.328Z,12.94
2023-04-18T01:26:48.150Z,12.94
2023-04-18T01:29:38.890Z,12.98
2023-04-18T01:32:07.977Z,12.98
2023-04-18T01:34:36.938Z,12.96
2023-04-18T01:39:43.633Z,12.89
2023-04-18T01:42:10.054Z,12.86
2023-04-18T01:44:38.769Z,12.86
2023-04-18T01:47:05.265Z,12.85
2023-04-18T01:49:31.699Z,12.84
2023-04-18T01:54:38.417Z,12.75
2023-04-18T01:57:04.896Z,12.69
2023-04-18T01:59:31.226Z,12.69
2023-04-18T02:01:57.702Z,12.68
2023-04-18T02:04:24.254Z,12.65
2023-04-18T02:06:50.822Z,12.65
2023-04-18T02:09:21.808Z,12.63
2023-04-18T02:11:48.308Z,12.59
2023-04-18T02:14:14.945Z,12.61
2023-04-18T02:19:30.982Z,12.56
2023-04-18T02:21:57.342Z,12.56
2023-04-18T02:24:23.699Z,12.59
2023-04-18T02:26:50.113Z,12.54
2023-04-18T02:29:16.523Z,12.53
2023-04-18T02:31:43.002Z,12.52
2023-04-18T02:34:09.535Z,12.48
2023-04-18T02:36:36.029Z,12.48
2023-04-18T02:39:02.505Z,12.50
2023-04-18T02:41:28.931Z,12.51
2023-04-18T02:43:55.374Z,12.47
2023-04-18T02:46:21.854Z,12.47
2023-04-18T02:48:48.454Z,12.51
2023-04-18T02:51:14.970Z,12.46
2023-04-18T02:53:41.393Z,12.43
2023-04-18T02:56:07.861Z,12.03
2023-04-18T02:58:34.327Z,12.16
2023-04-18T03:01:00.834Z,12.28
2023-04-18T03:03:27.336Z,12.36
2023-04-18T03:05:53.888Z,12.42
2023-04-18T03:08:20.416Z,12.48
2023-04-18T03:10:46.894Z,12.51
2023-04-18T03:13:13.372Z,12.53
2023-04-18T03:15:39.894Z,12.55
2023-04-18T03:18:06.548Z,12.53
2023-04-18T03:20:33.064Z,12.48
2023-04-18T03:22:59.581Z,12.44
2023-04-18T03:25:26.065Z,12.40
2023-04-18T03:27:52.507Z,12.34
2023-04-18T03:30:19.104Z,12.31
2023-04-18T03:32:45.701Z,12.29
2023-04-18T03:35:12.244Z,12.29
2023-04-18T03:37:38.736Z,12.29
2023-04-18T03:40:05.222Z,12.32
2023-04-18T03:42:32.090Z,12.32
2023-04-18T03:44:58.586Z,12.33
2023-04-18T03:47:25.230Z,12.31
2023-04-18T03:49:51.733Z,12.26
2023-04-18T03:52:18.289Z,12.24
2023-04-18T03:54:44.827Z,12.21
2023-04-18T03:57:11.444Z,12.20
2023-04-18T03:59:37.915Z,12.20
2023-04-18T04:02:04.551Z,12.20
2023-04-18T04:04:31.269Z,12.21
2023-04-18T04:06:57.738Z,12.23
2023-04-18T04:09:24.347Z,12.26
2023-04-18T04:11:50.790Z,12.28
2023-04-18T04:14:17.260Z,12.28
2023-04-18T04:16:43.763Z,12.19
2023-04-18T04:19:10.264Z,12.21
2023-04-18T04:21:36.683Z,12.24
2023-04-18T04:24:03.166Z,12.24
2023-04-18T04:26:29.694Z,12.23
2023-04-18T04:28:56.228Z,12.24
2023-04-18T04:31:22.728Z,12.25
2023-04-18T04:33:49.220Z,12.29
2023-04-18T04:36:17.981Z,12.28
2023-04-18T04:38:45.092Z,12.26
2023-04-18T04:41:11.532Z,12.29
2023-04-18T04:43:38.017Z,12.31
2023-04-18T04:46:04.722Z,12.32
2023-04-18T04:48:31.283Z,12.31
2023-04-18T04:50:57.748Z,12.30
2023-04-18T04:53:24.267Z,12.31
2023-04-18T04:55:51.800Z,12.33
2023-04-18T04:58:18.250Z,12.32
2023-04-18T05:00:44.686Z,12.34
2023-04-18T05:03:11.344Z,12.34
2023-04-18T05:05:38.067Z,12.34
2023-04-18T05:08:04.553Z,12.35
2023-04-18T05:10:31.028Z,12.36
2023-04-18T05:12:57.569Z,12.35
2023-04-18T05:15:24.089Z,12.36
2023-04-18T05:17:50.746Z,12.39
2023-04-18T05:20:17.395Z,12.40
2023-04-18T05:22:44.837Z,12.42
2023-04-18T05:25:11.301Z,12.43
2023-04-18T05:27:37.765Z,12.46
2023-04-18T05:30:04.239Z,12.48
2023-04-18T05:32:30.834Z,12.53
2023-04-18T05:34:57.354Z,12.49
2023-04-18T05:37:23.873Z,12.55
2023-04-18T05:39:50.280Z,12.58
2023-04-18T05:42:16.727Z,12.58
2023-04-18T05:44:43.197Z,12.63
2023-04-18T05:49:49.996Z,12.65
2023-04-18T05:52:16.526Z,12.67
2023-04-18T05:54:42.994Z,12.71
2023-04-18T05:57:09.464Z,12.70
2023-04-18T05:59:35.973Z,12.69
2023-04-18T06:02:02.641Z,12.67
2023-04-18T06:04:29.330Z,12.68
2023-04-18T06:06:55.926Z,12.68
2023-04-18T06:09:22.446Z,12.67
2023-04-18T06:11:48.865Z,12.66
2023-04-18T06:14:15.572Z,12.67
2023-04-18T06:16:42.369Z,12.66
2023-04-18T06:19:08.766Z,12.65
2023-04-18T06:21:35.366Z,12.63
2023-04-18T06:24:02.863Z,12.61
2023-04-18T06:26:29.374Z,12.58
2023-04-18T06:28:55.781Z,12.41
2023-04-18T06:31:23.568Z,12.45
2023-04-18T06:33:50.274Z,12.39
2023-04-18T06:36:16.669Z,12.42
2023-04-18T06:38:43.935Z,12.50
2023-04-18T06:41:10.482Z,12.59
2023-04-18T06:43:36.857Z,12.59
2023-04-18T06:46:10.336Z,12.50
2023-04-18T06:48:36.842Z,12.57
2023-04-18T06:51:03.379Z,12.55
2023-04-18T06:53:29.766Z,12.67
2023-04-18T06:55:56.229Z,12.59
2023-04-18T06:58:22.626Z,12.54
2023-04-18T07:00:56.914Z,12.43
2023-04-18T07:03:23.448Z,12.55
2023-04-18T07:05:49.950Z,12.59
2023-04-18T07:10:56.692Z,12.41
2023-04-18T07:13:23.142Z,12.48
2023-04-18T07:15:49.710Z,12.35
2023-04-18T07:18:23.351Z,12.48
2023-04-18T07:20:57.000Z,12.40
2023-04-18T07:23:23.481Z,12.38
2023-04-18T07:25:49.979Z,12.32
2023-04-18T07:28:16.435Z,12.46
2023-04-18T07:30:42.885Z,12.58
2023-04-18T07:36:00.164Z,12.55
2023-04-18T07:38:26.776Z,12.56
2023-04-18T07:40:53.240Z,12.57
2023-04-18T07:43:20.868Z,12.68
2023-04-18T07:45:47.427Z,12.82
2023-04-18T07:48:13.881Z,12.89
2023-04-18T07:50:40.710Z,12.87
2023-04-18T07:53:07.124Z,12.86
2023-04-18T07:55:33.487Z,12.77
2023-04-18T07:57:59.999Z,12.71
2023-04-18T08:00:26.690Z,12.73
2023-04-18T08:02:53.299Z,12.55
2023-04-18T08:05:19.905Z,12.66
2023-04-18T08:07:46.379Z,12.65
2023-04-18T08:10:13.901Z,12.66
2023-04-18T08:12:40.360Z,12.63
2023-04-18T08:15:06.902Z,12.64
2023-04-18T08:17:33.690Z,12.60
2023-04-18T08:20:00.175Z,12.55
2023-04-18T08:22:27.006Z,12.62
2023-04-18T08:27:23.860Z,12.64
2023-04-18T08:29:50.288Z,12.61
2023-04-18T08:32:16.777Z,12.61
2023-04-18T08:34:43.159Z,12.60
2023-04-18T08:37:09.713Z,12.59
2023-04-18T08:39:36.150Z,12.55
2023-04-18T08:42:05.644Z,12.49
2023-04-18T08:44:33.129Z,12.52
2023-04-18T08:46:59.742Z,12.47
2023-04-18T08:49:26.196Z,12.55
2023-04-18T08:51:52.623Z,12.62
2023-04-18T08:54:19.067Z,12.48
2023-04-18T08:56:45.475Z,12.36
2023-04-18T08:59:12.002Z,12.40
2023-04-18T09:01:38.665Z,12.65
2023-04-18T09:04:05.140Z,12.75
2023-04-18T09:06:31.587Z,12.61
2023-04-18T09:08:58.099Z,12.66
2023-04-18T09:11:24.513Z,12.61
2023-04-18T09:13:52.483Z,12.61
2023-04-18T09:16:18.876Z,12.76
2023-04-18T09:18:45.283Z,12.75
2023-04-18T09:21:11.671Z,12.80
2023-04-18T09:23:38.042Z,12.89
2023-04-18T09:26:04.475Z,12.92
2023-04-18T09:28:30.951Z,12.90
2023-04-18T09:30:57.438Z,12.86
2023-04-18T09:33:23.927Z,12.90
2023-04-18T09:35:50.309Z,12.89
2023-04-18T09:38:16.850Z,12.84
2023-04-18T09:40:43.304Z,12.80
2023-04-18T09:43:09.716Z,12.82
2023-04-18T09:45:36.164Z,12.86
2023-04-18T09:48:02.652Z,12.82
2023-04-18T09:50:29.035Z,12.80
2023-04-18T09:52:55.399Z,12.80
2023-04-18T09:55:21.781Z,12.79
2023-04-18T09:57:48.180Z,12.69
2023-04-18T10:00:14.620Z,12.66
2023-04-18T10:02:41.042Z,12.54
2023-04-18T10:05:09.513Z,12.52
2023-04-18T10:07:36.036Z,12.49
2023-04-18T10:10:02.437Z,12.45
2023-04-18T10:12:28.858Z,12.30
2023-04-18T10:14:55.311Z,12.37
2023-04-18T10:17:21.962Z,12.27
2023-04-18T10:19:48.580Z,12.08
2023-04-18T10:22:14.999Z,12.19
2023-04-18T10:24:41.476Z,12.24
2023-04-18T10:27:07.929Z,12.26
2023-04-18T10:29:34.306Z,12.33
2023-04-18T10:32:00.723Z,12.38
2023-04-18T10:34:27.258Z,12.32
2023-04-18T10:36:53.733Z,12.32
2023-04-18T10:39:20.249Z,12.38
2023-04-18T10:41:47.921Z,12.39
2023-04-18T10:44:15.614Z,12.43
2023-04-18T10:46:42.476Z,12.48
2023-04-18T10:49:08.898Z,12.43
2023-04-18T10:51:35.293Z,12.52
2023-04-18T10:54:01.759Z,12.53
2023-04-18T10:56:28.322Z,12.58
2023-04-18T10:58:55.135Z,12.55
2023-04-18T11:01:23.077Z,12.66
2023-04-18T11:03:49.566Z,12.80
2023-04-18T11:06:15.991Z,12.81
2023-04-18T11:08:42.682Z,12.91
2023-04-18T11:11:09.091Z,13.03
2023-04-18T11:13:35.533Z,13.07
2023-04-18T11:16:02.012Z,13.11
2023-04-18T11:18:28.419Z,13.22
2023-04-18T11:20:54.889Z,13.19
2023-04-18T11:23:21.368Z,13.34
2023-04-18T11:25:53.925Z,13.44
2023-04-18T11:28:20.310Z,13.26
2023-04-18T11:30:46.751Z,13.29
2023-04-18T11:33:13.295Z,13.26
2023-04-18T11:35:41.133Z,13.18
2023-04-18T11:38:07.665Z,13.07
2023-04-18T11:40:34.234Z,13.01
2023-04-18T11:43:00.691Z,13.09
2023-04-18T11:45:28.420Z,13.13
2023-04-18T11:47:54.877Z,13.17
2023-04-18T11:50:21.496Z,13.21
2023-04-18T11:52:49.134Z,13.19
2023-04-18T11:55:15.662Z,13.31
2023-04-18T11:57:42.244Z,13.44
2023-04-18T12:00:08.807Z,13.38
2023-04-18T12:02:35.467Z,13.51
2023-04-18T12:05:02.240Z,13.63
2023-04-18T12:07:29.071Z,13.56
2023-04-18T12:09:55.479Z,13.68
2023-04-18T12:12:23.524Z,13.75
2023-04-18T12:14:49.966Z,13.90
2023-04-18T12:17:16.462Z,14.02
2023-04-18T12:19:42.931Z,14.26
2023-04-18T12:22:09.463Z,14.50
2023-04-18T12:24:35.928Z,14.51
2023-04-18T12:27:02.512Z,14.67
2023-04-18T12:29:29.129Z,14.80
2023-04-18T12:31:55.734Z,14.84
2023-04-18T12:34:22.159Z,14.76
2023-04-18T12:36:48.613Z,14.70
2023-04-18T12:39:15.088Z,14.78
2023-04-18T12:41:41.660Z,14.86
2023-04-18T12:44:08.058Z,14.82
2023-04-18T12:46:34.551Z,14.97
2023-04-18T12:49:00.976Z,15.06
2023-04-18T12:51:27.392Z,15.12
2023-04-18T12:53:53.905Z,15.11
2023-04-18T12:56:20.298Z,15.15
2023-04-18T12:58:46.727Z,15.04
2023-04-18T13:01:14.543Z,14.96
2023-04-18T13:03:41.159Z,14.94
2023-04-18T13:06:07.764Z,14.86
2023-04-18T13:08:34.252Z,14.78
2023-04-18T13:11:00.685Z,14.82
2023-04-18T13:13:27.137Z,14.68
2023-04-18T13:15:53.662Z,14.69
2023-04-18T13:18:20.150Z,14.80
2023-04-18T13:20:46.560Z,14.88
2023-04-18T13:23:12.997Z,14.94
2023-04-18T13:25:39.374Z,14.92
2023-04-18T13:28:05.804Z,14.91
2023-04-18T13:30:33.444Z,14.95
2023-04-18T13:32:59.916Z,14.98
2023-04-18T13:35:26.336Z,15.11
2023-04-18T13:37:52.711Z,15.21
2023-04-18T13:40:19.080Z,15.10
2023-04-18T13:42:45.465Z,15.16
2023-04-18T13:45:11.864Z,15.28
2023-04-18T13:47:38.365Z,15.40
2023-04-18T13:50:04.818Z,15.41
2023-04-18T13:52:31.424Z,15.45
2023-04-18T13:54:57.929Z,15.52
2023-04-18T13:57:24.350Z,15.68
2023-04-18T13:59:52.753Z,15.87
2023-04-18T14:02:19.254Z,15.96
2023-04-18T14:04:45.974Z,15.89
2023-04-18T14:07:12.386Z,15.88
2023-04-18T14:09:38.785Z,15.88
2023-04-18T14:12:05.234Z,15.96
2023-04-18T14:14:31.754Z,15.99
2023-04-18T14:16:58.286Z,16.02
2023-04-18T14:19:24.798Z,16.05
2023-04-18T14:21:51.340Z,16.03
2023-04-18T14:24:17.785Z,16.10
2023-04-18T14:26:44.489Z,16.13
2023-04-18T14:29:10.864Z,16.20
2023-04-18T14:31:37.279Z,16.18
2023-04-18T14:34:04.029Z,16.36
2023-04-18T14:36:30.769Z,16.31
2023-04-18T14:38:59.950Z,16.41
2023-04-18T14:41:28.802Z,16.48
2023-04-18T14:43:55.472Z,16.66
2023-04-18T14:46:22.843Z,16.82
2023-04-18T14:48:52.026Z,16.86
2023-04-18T14:51:18.569Z,16.94
2023-04-18T14:53:45.010Z,17.06
2023-04-18T14:56:11.523Z,17.11
2023-04-18T14:58:37.898Z,17.21
2023-04-18T15:01:04.297Z,17.33
2023-04-18T15:03:31.089Z,17.27
2023-04-18T15:05:57.722Z,17.36
2023-04-18T15:08:24.123Z,17.47
2023-04-18T15:10:50.594Z,17.46
2023-04-18T15:13:17.016Z,17.51
2023-04-18T15:15:43.524Z,17.48
2023-04-18T15:18:09.916Z,17.63
2023-04-18T15:20:36.462Z,17.64
2023-04-18T15:23:02.821Z,17.67
2023-04-18T15:25:29.236Z,17.74
2023-04-18T15:27:55.666Z,17.81
2023-04-18T15:30:22.160Z,17.87
2023-04-18T15:32:48.752Z,17.90
2023-04-18T15:35:17.324Z,17.88
2023-04-18T15:37:43.684Z,17.72
2023-04-18T15:40:10.183Z,17.64
2023-04-18T15:42:36.563Z,17.68
2023-04-18T15:45:02.954Z,17.62
2023-04-18T15:47:29.426Z,17.59
2023-04-18T15:49:55.825Z,17.64
2023-04-18T15:52:22.284Z,17.70
2023-04-18T15:54:49.962Z,17.79
2023-04-18T15:57:16.354Z,17.44
2023-04-18T15:59:42.782Z,17.44
2023-04-18T16:02:09.262Z,17.46
2023-04-18T16:04:35.690Z,17.41
2023-04-18T16:07:02.159Z,17.74
2023-04-18T16:09:28.562Z,17.94
2023-04-18T16:11:54.972Z,19.19
2023-04-18T16:14:21.369Z,21.55
2023-04-18T16:16:47.795Z,23.94
2023-04-18T16:19:14.161Z,26.22
2023-04-18T16:21:40.533Z,27.97
2023-04-18T16:24:06.898Z,26.79
2023-04-18T16:26:33.243Z,25.98
2023-04-18T16:28:59.573Z,25.57
2023-04-18T16:31:26.075Z,26.07
2023-04-18T16:33:52.809Z,26.03
2023-04-18T16:36:19.414Z,26.41
2023-04-18T16:38:47.399Z,26.37
2023-04-18T16:41:13.781Z,26.94
2023-04-18T16:43:40.123Z,26.84
2023-04-18T16:46:06.593Z,26.21
2023-04-18T16:48:33.144Z,25.14
2023-04-18T16:50:59.566Z,24.48
2023-04-18T16:53:25.998Z,23.88
2023-04-18T16:55:52.401Z,23.43
2023-04-18T16:58:32.227Z,23.07
2023-04-18T17:00:58.575Z,22.58
2023-04-18T17:03:25.297Z,22.19
2023-04-18T17:05:51.889Z,21.87
2023-04-18T17:08:18.242Z,21.52
2023-04-18T17:10:44.643Z,21.34
2023-04-18T17:13:11.094Z,21.20
2023-04-18T17:15:37.617Z,21.00
2023-04-18T17:18:04.108Z,20.93
2023-04-18T17:20:30.533Z,20.87
2023-04-18T17:22:57.159Z,20.78
2023-04-18T17:25:23.559Z,20.70
2023-04-18T17:27:49.969Z,20.70
2023-04-18T17:30:16.437Z,20.68
2023-04-18T17:32:43.013Z,20.64
2023-04-18T17:35:09.495Z,20.63
2023-04-18T17:37:35.898Z,20.63
2023-04-18T17:40:02.306Z,20.61
2023-04-18T17:42:28.721Z,20.51
2023-04-18T17:44:55.136Z,20.40
2023-04-18T17:47:21.513Z,20.31
2023-04-18T17:49:48.054Z,20.26
2023-04-18T17:52:16.367Z,20.24
2023-04-18T17:54:42.760Z,20.21
2023-04-18T17:57:09.175Z,20.20
2023-04-18T17:59:35.626Z,20.17
2023-04-18T18:02:02.101Z,20.07
2023-04-18T18:04:28.684Z,19.97
2023-04-18T18:06:55.105Z,19.81
2023-04-18T18:09:21.754Z,19.68
2023-04-18T18:11:48.957Z,19.50
2023-04-18T18:14:15.338Z,19.38
2023-04-18T18:16:41.904Z,19.25
2023-04-18T18:19:08.414Z,19.17
2023-04-18T18:21:34.973Z,19.09
2023-04-18T18:24:01.435Z,19.03
2023-04-18T18:26:27.893Z,18.95
2023-04-18T18:28:56.380Z,18.86
2023-04-18T18:31:22.861Z,18.78
2023-04-18T18:33:50.386Z,18.74
2023-04-18T18:36:17.876Z,18.67
2023-04-18T18:38:44.322Z,18.61
2023-04-18T18:41:10.736Z,18.56
2023-04-18T18:43:39.228Z,18.43
2023-04-18T18:46:05.686Z,18.35
2023-04-18T18:48:32.158Z,18.29
2023-04-18T18:50:58.634Z,18.18
2023-04-18T18:53:25.090Z,18.11
2023-04-18T18:55:51.597Z,18.08
2023-04-18T18:58:18.031Z,18.05
2023-04-18T19:00:44.775Z,18.01
2023-04-18T19:03:13.986Z,17.99
2023-04-18T19:05:40.509Z,17.94
2023-04-18T19:08:06.972Z,17.90
2023-04-18T19:10:36.637Z,17.84
2023-04-18T19:13:03.156Z,17.78
2023-04-18T19:15:29.641Z,17.71
2023-04-18T19:17:56.167Z,17.65
2023-04-18T19:20:22.535Z,17.58
2023-04-18T19:22:48.989Z,17.55
2023-04-18T19:25:15.432Z,17.48
2023-04-18T19:27:42.975Z,17.45
2023-04-18T19:30:13.698Z,17.43
2023-04-18T19:32:40.131Z,17.41
2023-04-18T19:35:08.642Z,17.35
2023-04-18T19:37:35.152Z,17.37
2023-04-18T19:40:01.687Z,17.40
2023-04-18T19:42:32.427Z,17.39
2023-04-18T19:44:58.960Z,17.39
2023-04-18T19:47:25.478Z,17.38
2023-04-18T19:49:51.913Z,17.37
2023-04-18T19:52:19.305Z,17.38
2023-04-18T19:54:45.770Z,17.41
2023-04-18T19:57:12.199Z,17.37
2023-04-18T19:59:38.596Z,17.32
2023-04-18T20:02:06.463Z,17.24
2023-04-18T20:04:33.348Z,17.25
2023-04-18T20:06:59.909Z,17.13
2023-04-18T20:09:26.321Z,17.08
2023-04-18T20:11:52.829Z,17.06
2023-04-18T20:14:19.247Z,17.07
2023-04-18T20:16:47.093Z,17.06
2023-04-18T20:19:13.878Z,17.05
2023-04-18T20:21:44.866Z,17.00
2023-04-18T20:24:12.372Z,16.96
2023-04-18T20:26:38.859Z,16.90
2023-04-18T20:29:05.568Z,16.86
2023-04-18T20:31:32.124Z,16.80
2023-04-18T20:33:58.523Z,16.77
2023-04-18T20:36:25.774Z,16.74
2023-04-18T20:39:03.056Z,16.72
2023-04-18T20:41:29.538Z,16.72
2023-04-18T20:43:56.102Z,16.74
2023-04-18T20:46:23.517Z,16.73
2023-04-18T20:48:50.025Z,16.73
2023-04-18T20:51:16.828Z,16.75
2023-04-18T20:53:43.295Z,16.70
2023-04-18T20:56:09.815Z,16.65
2023-04-18T20:58:38.984Z,16.62
2023-04-18T21:01:06.578Z,16.60
2023-04-18T21:03:34.220Z,16.57
2023-04-18T21:06:01.502Z,16.55
2023-04-18T21:08:30.547Z,16.50
2023-04-18T21:10:56.909Z,16.48
2023-04-18T21:13:25.069Z,16.46
2023-04-18T21:15:53.675Z,16.45
2023-04-18T21:18:20.134Z,16.39
2023-04-18T21:20:46.508Z,16.33
2023-04-18T21:23:12.941Z,16.29
2023-04-18T21:25:41.681Z,16.26
2023-04-18T21:28:08.109Z,16.25
2023-04-18T21:30:39.899Z,16.23
2023-04-18T21:33:14.244Z,16.24
2023-04-18T21:35:40.642Z,16.19
2023-04-18T21:38:07.162Z,16.13
2023-04-18T21:40:33.608Z,16.12
2023-04-18T21:43:00.136Z,16.08
2023-04-18T21:45:26.761Z,16.08
2023-04-18T21:47:53.302Z,16.05
2023-04-18T21:50:19.693Z,16.03
2023-04-18T21:52:47.484Z,16.04
2023-04-18T21:55:14.072Z,16.02
2023-04-18T21:57:40.533Z,16.06
2023-04-18T22:00:09.250Z,16.06
2023-04-18T22:02:36.961Z,16.06
2023-04-18T22:05:03.800Z,16.05
2023-04-18T22:07:30.315Z,16.02
2023-04-18T22:09:57.055Z,16.02
2023-04-18T22:12:23.743Z,16.02
2023-04-18T22:14:51.066Z,15.98
2023-04-18T22:17:17.641Z,15.97
2023-04-18T22:19:44.084Z,15.93
2023-04-18T22:22:10.651Z,15.89
2023-04-18T22:24:37.083Z,15.86
2023-04-18T22:27:03.443Z,15.79
2023-04-18T22:29:29.866Z,15.75
2023-04-18T22:32:01.910Z,15.76
2023-04-18T22:34:28.392Z,15.70
2023-04-18T22:36:54.909Z,15.69
2023-04-18T22:39:21.507Z,15.67
2023-04-18T22:41:47.991Z,15.65
2023-04-18T22:44:23.108Z,15.59
2023-04-18T22:46:49.588Z,15.53
2023-04-18T22:49:21.076Z,15.49
2023-04-18T22:51:47.576Z,15.48
2023-04-18T22:54:14.216Z,15.49
2023-04-18T22:59:21.304Z,15.33
2023-04-18T23:01:47.890Z,15.41
2023-04-18T23:04:14.792Z,15.41
2023-04-18T23:06:41.545Z,15.36
2023-04-18T23:09:08.144Z,15.28
2023-04-18T23:11:39.293Z,15.27
2023-04-18T23:14:07.989Z,15.26
2023-04-18T23:16:34.439Z,15.27
2023-04-18T23:19:00.958Z,15.27
2023-04-18T23:21:27.470Z,15.25
2023-04-18T23:23:53.933Z,15.22
2023-04-18T23:26:20.426Z,15.23
2023-04-18T23:28:47.005Z,15.23
2023-04-18T23:31:13.656Z,15.24
2023-04-18T23:33:40.150Z,15.21
2023-04-18T23:36:06.740Z,15.18
2023-04-18T23:38:33.140Z,15.15
2023-04-18T23:40:59.484Z,15.13
2023-04-18T23:43:25.922Z,15.11
2023-04-18T23:45:52.388Z,15.11
2023-04-18T23:48:18.862Z,15.13
2023-04-18T23:50:45.381Z,15.08
2023-04-18T23:53:11.858Z,15.08
2023-04-18T23:55:38.274Z,15.00
2023-04-18T23:58:04.685Z,15.01
